Antonino, KS

6:46 PM CDT on July 10, 2014 (GMT -0500)
Rural Ellis Co. (KKSHAYS15) Elev 2077 ft | 38.81 °N, 99.37 °W | Change Station

Current weather conditions updated 12 minutes ago

Clear
Clear
86.0 °F
Feels Like 93 °F
N
8.3
Wind Variable Wind from SE

Tomorrow is forecast to be Much Warmer than today.

Today
High -- | Low -- °F
--% Chance of Precip.
Yesterday
High -- | Low -- °F
Precip. -- in
6:21 AM 9:04 PM
Waxing Gibbous, 97% visible
Pressure 29.91 in
Visibility 10.0 miles
Clouds Clear
Heat Index 93 °F
Dew Point 72 °F
Humidity 64%
Rainfall 1.31 in
Snow Depth Not available.
UV 2 out of 12
Pollen 3.40 out of 12
Air Quality Not available.
Flu Activity No Activity
METAR KHYS 102335Z AUTO 15020G23KT 10SM CLR 29/18 A2991 RMK AO1

More Conditions Fewer Conditions

Pressure 29.91 in
Visibility 10.0 miles
Clouds Clear
Heat Index 93 °F
Dew Point 72 °F
Humidity 64%
Rainfall 1.31 in
Snow Depth Not available.
UV 2 out of 12
Pollen 3.40 out of 12
Air Quality Not available.
Flu Activity No Activity
METAR KHYS 102335Z AUTO 15020G23KT 10SM CLR 29/18 A2991 RMK AO1

More Conditions Fewer Conditions

10-Day Weather Forecast

Almanac

Astronomy

Jul. 10, 2014 Rise Set
Actual Time 6:21 AM CDT 9:04 PM CDT
Civil Twilight 5:49 AM CDT 9:35 PM CDT
Nautical Twilight 5:10 AM CDT 10:14 PM CDT
Astronomical Twilight 4:26 AM CDT 10:59 PM CDT
Moon 7:19 PM CDT 4:33 AM CDT
Length of Visible Light 15h 45m
Length of Day
14h 42m
Tomorrow will be 1m 5s shorter.
Waxing Gibbous, 97% of the Moon is Illuminated
Today
Waxing Gibbous
Jul 12
Full
Jul 18
Last Quarter
Jul 26
New
Aug 3
First Quarter

Today's Extremes

State Highs State Lows

Community

WunderPhotos

Upload Photos

1,732,296 photos uploaded!

Nearby

Snow Depth

Station Depth Elevation
No new snow has been reported.

Earthquake Activity

City Distance Mag. Time & Date
No recent earthquake activity has been reported nearby.
Minimum magnitude displayed is 2.5.

Coastal Water Temperatures

Place Temperature
No Stations Reporting

Nearby Weather Stations

Station Location Temp. Heat Index Dew Point Humidity Wind Precip. Elev Updated Type
Rural Ellis Co., Hays, KS 86.0 °F 93 °F 72 °F 64% SE  at  8.3 mph - / hr 2077 ft 6:33 PM CDT Normal
MesoWest YOCEME , Hays, KS 83 °F 81 °F - - North  at  - 0.00 in / hr 2047 ft 5:50 PM CDT MADIS
MesoWest WALKER , Walker, KS 87 °F 84 °F - - North  at  - 0.00 in / hr 1941 ft 5:15 PM CDT MADIS
Gorham Tele-Com, Gorham, KS 88.0 °F 95 °F 72 °F 59% NNE  at  12.8 mph 0.00 in / hr 1919 ft 6:46 PM CDT Rapid Fire

Show More Stations Show Fewer Stations